sensor_id;sensor_type;location;lat;lon;timestamp;P1;durP1;ratioP1;P2;durP2;ratioP2
83121;SDS011;73002;47.238;9.006;2024-03-02T00:06:20;2.95;;;1.70;;
83121;SDS011;73002;47.238;9.006;2024-03-02T00:08:46;1.73;;;1.50;;
83121;SDS011;73002;47.238;9.006;2024-03-02T00:11:12;1.73;;;1.50;;
83121;SDS011;73002;47.238;9.006;2024-03-02T00:13:39;3.03;;;1.60;;
83121;SDS011;73002;47.238;9.006;2024-03-02T00:16:04;1.55;;;1.45;;
83121;SDS011;73002;47.238;9.006;2024-03-02T00:18:31;2.70;;;1.98;;
83121;SDS011;73002;47.238;9.006;2024-03-02T00:20:58;1.80;;;1.40;;
83121;SDS011;73002;47.238;9.006;2024-03-02T00:23:27;1.77;;;1.25;;
83121;SDS011;73002;47.238;9.006;2024-03-02T00:25:55;1.60;;;1.20;;
83121;SDS011;73002;47.238;9.006;2024-03-02T00:42:24;1.33;;;1.23;;
83121;SDS011;73002;47.238;9.006;2024-03-02T01:02:46;15.97;;;9.90;;
83121;SDS011;73002;47.238;9.006;2024-03-02T01:23:18;17.90;;;11.73;;
83121;SDS011;73002;47.238;9.006;2024-03-02T01:25:46;19.08;;;12.30;;
83121;SDS011;73002;47.238;9.006;2024-03-02T01:28:12;18.38;;;11.45;;
83121;SDS011;73002;47.238;9.006;2024-03-02T01:30:38;17.98;;;11.07;;
83121;SDS011;73002;47.238;9.006;2024-03-02T01:43:04;10.38;;;7.28;;
83121;SDS011;73002;47.238;9.006;2024-03-02T01:58:25;10.27;;;7.72;;
83121;SDS011;73002;47.238;9.006;2024-03-02T02:00:53;11.85;;;8.70;;
83121;SDS011;73002;47.238;9.006;2024-03-02T02:03:18;13.73;;;8.50;;
83121;SDS011;73002;47.238;9.006;2024-03-02T02:05:44;12.80;;;8.45;;
83121;SDS011;73002;47.238;9.006;2024-03-02T02:08:12;11.27;;;8.38;;
83121;SDS011;73002;47.238;9.006;2024-03-02T02:18:22;11.30;;;8.30;;
83121;SDS011;73002;47.238;9.006;2024-03-02T02:20:49;10.43;;;7.93;;
83121;SDS011;73002;47.238;9.006;2024-03-02T02:23:15;10.57;;;7.90;;
83121;SDS011;73002;47.238;9.006;2024-03-02T02:25:40;10.75;;;7.80;;
83121;SDS011;73002;47.238;9.006;2024-03-02T02:28:06;11.02;;;8.30;;
83121;SDS011;73002;47.238;9.006;2024-03-02T02:43:27;9.00;;;6.80;;
83121;SDS011;73002;47.238;9.006;2024-03-02T02:45:52;8.60;;;6.97;;
83121;SDS011;73002;47.238;9.006;2024-03-02T03:11:35;8.15;;;6.22;;
83121;SDS011;73002;47.238;9.006;2024-03-02T03:14:03;8.00;;;6.18;;
83121;SDS011;73002;47.238;9.006;2024-03-02T03:16:30;8.10;;;6.45;;
83121;SDS011;73002;47.238;9.006;2024-03-02T03:21:30;8.00;;;5.90;;
83121;SDS011;73002;47.238;9.006;2024-03-02T03:23:56;7.72;;;5.85;;
83121;SDS011;73002;47.238;9.006;2024-03-02T03:26:21;7.78;;;5.30;;
83121;SDS011;73002;47.238;9.006;2024-03-02T03:28:47;6.85;;;5.32;;
83121;SDS011;73002;47.238;9.006;2024-03-02T03:31:12;7.28;;;4.88;;
83121;SDS011;73002;47.238;9.006;2024-03-02T03:33:37;6.47;;;4.78;;
83121;SDS011;73002;47.238;9.006;2024-03-02T03:36:07;7.55;;;4.75;;
83121;SDS011;73002;47.238;9.006;2024-03-02T03:38:32;5.13;;;4.28;;
83121;SDS011;73002;47.238;9.006;2024-03-02T04:04:55;3.75;;;2.92;;
83121;SDS011;73002;47.238;9.006;2024-03-02T04:07:21;4.10;;;3.10;;
83121;SDS011;73002;47.238;9.006;2024-03-02T04:09:46;3.72;;;2.53;;
83121;SDS011;73002;47.238;9.006;2024-03-02T04:22:35;3.53;;;2.67;;
83121;SDS011;73002;47.238;9.006;2024-03-02T04:43:06;3.75;;;2.28;;
83121;SDS011;73002;47.238;9.006;2024-03-02T04:45:37;3.00;;;2.30;;
83121;SDS011;73002;47.238;9.006;2024-03-02T04:48:03;2.53;;;2.10;;
83121;SDS011;73002;47.238;9.006;2024-03-02T04:50:29;2.30;;;2.10;;
83121;SDS011;73002;47.238;9.006;2024-03-02T05:08:25;3.35;;;2.60;;
83121;SDS011;73002;47.238;9.006;2024-03-02T05:10:53;3.78;;;2.80;;
83121;SDS011;73002;47.238;9.006;2024-03-02T05:13:18;3.05;;;2.10;;
83121;SDS011;73002;47.238;9.006;2024-03-02T05:15:45;3.28;;;2.20;;
83121;SDS011;73002;47.238;9.006;2024-03-02T05:18:11;2.75;;;2.13;;
83121;SDS011;73002;47.238;9.006;2024-03-02T05:30:57;2.90;;;1.90;;
83121;SDS011;73002;47.238;9.006;2024-03-02T05:33:26;2.58;;;2.08;;
83121;SDS011;73002;47.238;9.006;2024-03-02T05:35:51;2.30;;;2.08;;
83121;SDS011;73002;47.238;9.006;2024-03-02T05:38:20;2.13;;;1.92;;
83121;SDS011;73002;47.238;9.006;2024-03-02T05:40:46;2.83;;;2.30;;
83121;SDS011;73002;47.238;9.006;2024-03-02T05:43:15;2.08;;;1.80;;
83121;SDS011;73002;47.238;9.006;2024-03-02T05:45:41;4.00;;;1.92;;
83121;SDS011;73002;47.238;9.006;2024-03-02T05:58:27;2.20;;;1.88;;
83121;SDS011;73002;47.238;9.006;2024-03-02T06:01:14;4.40;;;1.77;;
83121;SDS011;73002;47.238;9.006;2024-03-02T06:03:39;2.03;;;1.70;;
83121;SDS011;73002;47.238;9.006;2024-03-02T06:06:04;2.65;;;1.70;;
83121;SDS011;73002;47.238;9.006;2024-03-02T06:08:30;2.28;;;1.67;;
83121;SDS011;73002;47.238;9.006;2024-03-02T06:10:56;2.03;;;1.60;;
83121;SDS011;73002;47.238;9.006;2024-03-02T06:13:23;2.95;;;1.70;;
83121;SDS011;73002;47.238;9.006;2024-03-02T06:15:50;1.70;;;1.48;;
83121;SDS011;73002;47.238;9.006;2024-03-02T06:18:19;2.80;;;1.70;;
83121;SDS011;73002;47.238;9.006;2024-03-02T06:20:45;2.40;;;1.70;;
83121;SDS011;73002;47.238;9.006;2024-03-02T06:30:55;2.25;;;1.50;;
83121;SDS011;73002;47.238;9.006;2024-03-02T06:33:21;1.80;;;1.48;;
83121;SDS011;73002;47.238;9.006;2024-03-02T06:35:49;2.15;;;1.60;;
83121;SDS011;73002;47.238;9.006;2024-03-02T06:38:16;2.20;;;1.70;;
83121;SDS011;73002;47.238;9.006;2024-03-02T06:40:42;2.30;;;1.27;;
83121;SDS011;73002;47.238;9.006;2024-03-02T06:48:18;1.70;;;1.50;;
83121;SDS011;73002;47.238;9.006;2024-03-02T06:50:46;1.85;;;1.40;;
83121;SDS011;73002;47.238;9.006;2024-03-02T06:53:15;1.80;;;1.20;;
83121;SDS011;73002;47.238;9.006;2024-03-02T06:55:45;1.58;;;1.20;;
83121;SDS011;73002;47.238;9.006;2024-03-02T06:58:13;2.30;;;1.10;;
83121;SDS011;73002;47.238;9.006;2024-03-02T07:00:40;1.50;;;1.10;;
83121;SDS011;73002;47.238;9.006;2024-03-02T09:53:05;1.90;;;1.70;;
83121;SDS011;73002;47.238;9.006;2024-03-02T09:55:31;2.50;;;1.75;;
83121;SDS011;73002;47.238;9.006;2024-03-02T09:57:59;1.73;;;1.20;;
83121;SDS011;73002;47.238;9.006;2024-03-02T10:00:25;1.60;;;1.30;;
